sensor_id;sensor_type;location;lat;lon;timestamp;temperature;humidity
780;DHT22;373;49.342;8.146;2023-02-28T00:00:12;1.00;99.90
780;DHT22;373;49.342;8.146;2023-02-28T00:02:41;0.90;99.90
780;DHT22;373;49.342;8.146;2023-02-28T00:05:09;0.80;99.90
780;DHT22;373;49.342;8.146;2023-02-28T00:07:37;0.80;99.90
780;DHT22;373;49.342;8.146;2023-02-28T00:10:06;0.80;99.90
780;DHT22;373;49.342;8.146;2023-02-28T00:12:34;0.70;99.90
780;DHT22;373;49.342;8.146;2023-02-28T00:15:05;0.70;99.90
780;DHT22;373;49.342;8.146;2023-02-28T00:17:33;0.70;99.90
780;DHT22;373;49.342;8.146;2023-02-28T00:20:00;0.60;99.90
780;DHT22;373;49.342;8.146;2023-02-28T00:22:36;0.70;99.90
780;DHT22;373;49.342;8.146;2023-02-28T00:25:04;0.70;99.90
780;DHT22;373;49.342;8.146;2023-02-28T00:27:32;0.70;99.90
780;DHT22;373;49.342;8.146;2023-02-28T00:29:59;0.70;99.90
780;DHT22;373;49.342;8.146;2023-02-28T00:32:28;0.60;99.90
780;DHT22;373;49.342;8.146;2023-02-28T00:34:55;0.70;99.90
780;DHT22;373;49.342;8.146;2023-02-28T00:37:22;0.60;99.90
780;DHT22;373;49.342;8.146;2023-02-28T00:39:49;0.60;99.90
780;DHT22;373;49.342;8.146;2023-02-28T00:42:16;0.50;99.90
780;DHT22;373;49.342;8.146;2023-02-28T00:44:43;0.50;99.90
780;DHT22;373;49.342;8.146;2023-02-28T00:47:11;0.50;99.90
780;DHT22;373;49.342;8.146;2023-02-28T00:49:39;0.50;99.90
780;DHT22;373;49.342;8.146;2023-02-28T00:52:09;0.50;99.90
780;DHT22;373;49.342;8.146;2023-02-28T00:54:36;0.60;99.90
780;DHT22;373;49.342;8.146;2023-02-28T00:57:03;0.50;99.90
780;DHT22;373;49.342;8.146;2023-02-28T00:59:31;0.50;99.90
780;DHT22;373;49.342;8.146;2023-02-28T01:01:58;0.50;99.90
780;DHT22;373;49.342;8.146;2023-02-28T01:04:26;0.50;99.90
780;DHT22;373;49.342;8.146;2023-02-28T01:06:54;0.40;99.90
780;DHT22;373;49.342;8.146;2023-02-28T01:09:21;0.50;99.90
780;DHT22;373;49.342;8.146;2023-02-28T01:11:48;0.40;99.90
780;DHT22;373;49.342;8.146;2023-02-28T01:14:16;0.40;99.90
780;DHT22;373;49.342;8.146;2023-02-28T01:16:45;0.30;99.90
780;DHT22;373;49.342;8.146;2023-02-28T01:19:13;0.30;99.90
780;DHT22;373;49.342;8.146;2023-02-28T01:21:40;0.20;99.90
780;DHT22;373;49.342;8.146;2023-02-28T01:24:08;0.30;99.90
780;DHT22;373;49.342;8.146;2023-02-28T01:26:35;0.30;99.90
780;DHT22;373;49.342;8.146;2023-02-28T01:29:06;0.30;99.90
780;DHT22;373;49.342;8.146;2023-02-28T01:31:33;0.40;99.90
780;DHT22;373;49.342;8.146;2023-02-28T01:34:01;0.40;99.90
780;DHT22;373;49.342;8.146;2023-02-28T01:36:28;0.30;99.90
780;DHT22;373;49.342;8.146;2023-02-28T01:38:56;0.30;1.00
780;DHT22;373;49.342;8.146;2023-02-28T01:41:26;0.30;99.90
780;DHT22;373;49.342;8.146;2023-02-28T01:43:59;0.30;1.00
780;DHT22;373;49.342;8.146;2023-02-28T01:46:29;0.40;1.00
780;DHT22;373;49.342;8.146;2023-02-28T01:49:02;0.30;1.00
780;DHT22;373;49.342;8.146;2023-02-28T01:51:36;0.40;1.00
780;DHT22;373;49.342;8.146;2023-02-28T01:54:07;0.30;99.90
780;DHT22;373;49.342;8.146;2023-02-28T01:56:45;0.30;1.00
780;DHT22;373;49.342;8.146;2023-02-28T01:59:14;0.20;1.00
780;DHT22;373;49.342;8.146;2023-02-28T02:01:44;0.20;1.00
780;DHT22;373;49.342;8.146;2023-02-28T02:04:11;0.20;1.00
780;DHT22;373;49.342;8.146;2023-02-28T02:06:42;0.20;1.00
780;DHT22;373;49.342;8.146;2023-02-28T02:09:10;0.60;81.80
780;DHT22;373;49.342;8.146;2023-02-28T02:11:41;0.80;6.00
780;DHT22;373;49.342;8.146;2023-02-28T02:14:32;1.00;1.00
780;DHT22;373;49.342;8.146;2023-02-28T02:17:14;0.90;1.00
780;DHT22;373;49.342;8.146;2023-02-28T02:20:38;1.00;1.00
780;DHT22;373;49.342;8.146;2023-02-28T02:23:33;1.30;1.00
780;DHT22;373;49.342;8.146;2023-02-28T02:26:21;1.10;1.00
780;DHT22;373;49.342;8.146;2023-02-28T02:32:20;1.20;1.00
780;DHT22;373;49.342;8.146;2023-02-28T02:35:02;1.60;1.00
780;DHT22;373;49.342;8.146;2023-02-28T02:37:37;1.40;99.90
780;DHT22;373;49.342;8.146;2023-02-28T02:40:12;1.10;1.00
780;DHT22;373;49.342;8.146;2023-02-28T02:42:47;1.10;1.00
780;DHT22;373;49.342;8.146;2023-02-28T02:45:20;1.20;1.00
780;DHT22;373;49.342;8.146;2023-02-28T02:47:49;1.30;99.90
780;DHT22;373;49.342;8.146;2023-02-28T02:50:23;1.10;99.90
780;DHT22;373;49.342;8.146;2023-02-28T02:52:54;1.00;1.00
780;DHT22;373;49.342;8.146;2023-02-28T02:55:23;1.10;99.90
780;DHT22;373;49.342;8.146;2023-02-28T02:57:53;1.00;99.90
780;DHT22;373;49.342;8.146;2023-02-28T03:00:23;0.80;1.00
780;DHT22;373;49.342;8.146;2023-02-28T03:02:52;1.00;1.00
780;DHT22;373;49.342;8.146;2023-02-28T03:05:26;0.80;1.00
780;DHT22;373;49.342;8.146;2023-02-28T03:07:54;0.90;1.00
780;DHT22;373;49.342;8.146;2023-02-28T03:10:37;1.00;1.00
780;DHT22;373;49.342;8.146;2023-02-28T03:13:23;0.80;1.00
780;DHT22;373;49.342;8.146;2023-02-28T03:16:07;0.70;1.00
780;DHT22;373;49.342;8.146;2023-02-28T03:18:42;0.20;1.00
780;DHT22;373;49.342;8.146;2023-02-28T03:21:18;0.10;1.00
780;DHT22;373;49.342;8.146;2023-02-28T03:23:56;-0.10;1.00
780;DHT22;373;49.342;8.146;2023-02-28T03:26:27;-0.10;1.00
780;DHT22;373;49.342;8.146;2023-02-28T03:29:00;-0.20;1.00
780;DHT22;373;49.342;8.146;2023-02-28T03:31:32;-0.20;12.80
780;DHT22;373;49.342;8.146;2023-02-28T03:34:04;-0.30;68.20
780;DHT22;373;49.342;8.146;2023-02-28T03:36:37;-0.40;99.90
780;DHT22;373;49.342;8.146;2023-02-28T03:39:14;-0.30;99.90
780;DHT22;373;49.342;8.146;2023-02-28T03:41:45;-0.30;99.90
780;DHT22;373;49.342;8.146;2023-02-28T03:44:18;-0.40;99.90
780;DHT22;373;49.342;8.146;2023-02-28T04:13:18;-0.50;99.90
780;DHT22;373;49.342;8.146;2023-02-28T04:15:45;-0.50;99.90
780;DHT22;373;49.342;8.146;2023-02-28T04:18:12;-0.50;1.00
780;DHT22;373;49.342;8.146;2023-02-28T04:20:39;-0.50;99.90
780;DHT22;373;49.342;8.146;2023-02-28T04:23:06;-0.60;99.90
780;DHT22;373;49.342;8.146;2023-02-28T04:25:34;-0.50;99.90
780;DHT22;373;49.342;8.146;2023-02-28T04:28:01;-0.50;99.90
780;DHT22;373;49.342;8.146;2023-02-28T04:30:30;-0.50;99.90
780;DHT22;373;49.342;8.146;2023-02-28T04:32:58;-0.50;99.90
780;DHT22;373;49.342;8.146;2023-02-28T04:35:25;-0.50;99.90
780;DHT22;373;49.342;8.146;2023-02-28T04:37:52;-0.60;1.00
780;DHT22;373;49.342;8.146;2023-02-28T04:40:20;-0.60;1.00
780;DHT22;373;49.342;8.146;2023-02-28T04:42:47;-0.50;99.90
780;DHT22;373;49.342;8.146;2023-02-28T04:45:14;-0.60;1.00
780;DHT22;373;49.342;8.146;2023-02-28T04:47:44;-0.50;99.90
780;DHT22;373;49.342;8.146;2023-02-28T04:50:11;-0.50;99.90
780;DHT22;373;49.342;8.146;2023-02-28T04:52:38;-0.50;1.00
780;DHT22;373;49.342;8.146;2023-02-28T04:55:06;-0.60;1.00
780;DHT22;373;49.342;8.146;2023-02-28T04:57:33;-0.70;1.00
780;DHT22;373;49.342;8.146;2023-02-28T05:00:00;-0.70;1.00
780;DHT22;373;49.342;8.146;2023-02-28T05:02:34;-0.60;1.00
780;DHT22;373;49.342;8.146;2023-02-28T05:05:03;-0.70;1.00
780;DHT22;373;49.342;8.146;2023-02-28T05:07:30;-0.60;1.00
780;DHT22;373;49.342;8.146;2023-02-28T05:09:57;-0.50;1.00
780;DHT22;373;49.342;8.146;2023-02-28T05:12:24;-0.50;1.00
780;DHT22;373;49.342;8.146;2023-02-28T05:14:51;-0.50;1.00
780;DHT22;373;49.342;8.146;2023-02-28T05:17:18;-0.40;1.00
780;DHT22;373;49.342;8.146;2023-02-28T05:19:45;-0.30;99.90
780;DHT22;373;49.342;8.146;2023-02-28T05:22:15;-0.40;99.90
780;DHT22;373;49.342;8.146;2023-02-28T05:24:42;-0.40;99.90
780;DHT22;373;49.342;8.146;2023-02-28T05:27:10;-0.40;99.90
780;DHT22;373;49.342;8.146;2023-02-28T05:29:38;-0.40;99.90
780;DHT22;373;49.342;8.146;2023-02-28T05:32:10;-0.40;99.90
780;DHT22;373;49.342;8.146;2023-02-28T05:34:37;-0.30;99.90
780;DHT22;373;49.342;8.146;2023-02-28T05:37:05;-0.30;99.90
780;DHT22;373;49.342;8.146;2023-02-28T05:39:33;-0.40;99.90
780;DHT22;373;49.342;8.146;2023-02-28T05:42:00;-0.40;99.90
780;DHT22;373;49.342;8.146;2023-02-28T05:44:28;-0.50;99.90
780;DHT22;373;49.342;8.146;2023-02-28T05:46:55;-0.50;1.00
780;DHT22;373;49.342;8.146;2023-02-28T05:49:22;-0.40;99.90
780;DHT22;373;49.342;8.146;2023-02-28T05:51:49;-0.40;99.90
780;DHT22;373;49.342;8.146;2023-02-28T05:54:16;-0.40;99.90
780;DHT22;373;49.342;8.146;2023-02-28T05:56:44;-0.30;99.90
780;DHT22;373;49.342;8.146;2023-02-28T05:59:12;-0.30;99.90
780;DHT22;373;49.342;8.146;2023-02-28T06:01:40;-0.30;99.90
780;DHT22;373;49.342;8.146;2023-02-28T06:04:09;-0.30;99.90
780;DHT22;373;49.342;8.146;2023-02-28T06:06:37;-0.20;99.90
780;DHT22;373;49.342;8.146;2023-02-28T06:09:05;-0.20;99.90
780;DHT22;373;49.342;8.146;2023-02-28T06:11:32;-0.20;99.90
780;DHT22;373;49.342;8.146;2023-02-28T06:14:01;-0.10;99.90
780;DHT22;373;49.342;8.146;2023-02-28T06:16:29;-0.10;51.10
780;DHT22;373;49.342;8.146;2023-02-28T06:18:57;-0.10;99.90
780;DHT22;373;49.342;8.146;2023-02-28T06:21:29;-0.10;99.90
780;DHT22;373;49.342;8.146;2023-02-28T06:23:57;-0.10;99.90
780;DHT22;373;49.342;8.146;2023-02-28T06:26:24;-0.20;99.90
780;DHT22;373;49.342;8.146;2023-02-28T06:28:51;-0.30;99.90
780;DHT22;373;49.342;8.146;2023-02-28T06:31:20;-0.20;99.90
780;DHT22;373;49.342;8.146;2023-02-28T06:33:47;-0.30;99.90
780;DHT22;373;49.342;8.146;2023-02-28T06:36:16;-0.20;99.90
780;DHT22;373;49.342;8.146;2023-02-28T06:38:43;-0.20;99.90
780;DHT22;373;49.342;8.146;2023-02-28T06:41:11;-0.10;99.90
780;DHT22;373;49.342;8.146;2023-02-28T06:43:40;-0.10;99.90
780;DHT22;373;49.342;8.146;2023-02-28T06:46:10;-0.10;91.60
780;DHT22;373;49.342;8.146;2023-02-28T06:48:41;-0.20;99.90
780;DHT22;373;49.342;8.146;2023-02-28T06:51:09;-0.20;99.90
780;DHT22;373;49.342;8.146;2023-02-28T06:53:37;-0.10;99.90
780;DHT22;373;49.342;8.146;2023-02-28T06:56:05;-0.10;87.50
780;DHT22;373;49.342;8.146;2023-02-28T06:58:32;-0.10;99.90
780;DHT22;373;49.342;8.146;2023-02-28T07:01:00;0.00;99.90
780;DHT22;373;49.342;8.146;2023-02-28T07:03:27;0.00;85.60
780;DHT22;373;49.342;8.146;2023-02-28T07:05:56;-0.10;99.90
780;DHT22;373;49.342;8.146;2023-02-28T07:08:23;-0.10;94.90
780;DHT22;373;49.342;8.146;2023-02-28T07:10:52;0.00;94.50
780;DHT22;373;49.342;8.146;2023-02-28T07:13:19;-0.10;97.00
780;DHT22;373;49.342;8.146;2023-02-28T07:15:53;-0.10;90.60
780;DHT22;373;49.342;8.146;2023-02-28T07:18:21;0.00;69.70
780;DHT22;373;49.342;8.146;2023-02-28T07:20:48;0.00;59.80
780;DHT22;373;49.342;8.146;2023-02-28T07:23:17;0.20;19.40
780;DHT22;373;49.342;8.146;2023-02-28T07:25:44;0.10;1.00
780;DHT22;373;49.342;8.146;2023-02-28T07:28:12;0.00;18.30
780;DHT22;373;49.342;8.146;2023-02-28T07:30:40;0.10;98.70
780;DHT22;373;49.342;8.146;2023-02-28T07:33:07;0.00;1.00
780;DHT22;373;49.342;8.146;2023-02-28T07:35:35;0.00;32.40
780;DHT22;373;49.342;8.146;2023-02-28T07:38:02;0.10;22.40
780;DHT22;373;49.342;8.146;2023-02-28T07:40:31;0.20;3.60
780;DHT22;373;49.342;8.146;2023-02-28T07:42:59;0.20;1.00
780;DHT22;373;49.342;8.146;2023-02-28T07:45:27;0.20;1.00
780;DHT22;373;49.342;8.146;2023-02-28T07:47:55;0.20;1.00
780;DHT22;373;49.342;8.146;2023-02-28T07:50:23;0.10;1.00
780;DHT22;373;49.342;8.146;2023-02-28T07:52:50;0.30;1.00
780;DHT22;373;49.342;8.146;2023-02-28T07:55:17;0.50;1.00
780;DHT22;373;49.342;8.146;2023-02-28T07:57:45;0.70;1.00
780;DHT22;373;49.342;8.146;2023-02-28T08:00:13;0.60;1.00
780;DHT22;373;49.342;8.146;2023-02-28T08:02:40;0.70;1.00
780;DHT22;373;49.342;8.146;2023-02-28T08:05:08;0.70;1.00
780;DHT22;373;49.342;8.146;2023-02-28T08:07:35;0.90;1.00
780;DHT22;373;49.342;8.146;2023-02-28T08:10:03;0.90;1.00
780;DHT22;373;49.342;8.146;2023-02-28T08:12:31;0.90;1.00
780;DHT22;373;49.342;8.146;2023-02-28T08:14:59;1.00;1.00
780;DHT22;373;49.342;8.146;2023-02-28T08:17:26;1.00;1.00
780;DHT22;373;49.342;8.146;2023-02-28T08:19:54;1.00;1.00
780;DHT22;373;49.342;8.146;2023-02-28T08:22:20;1.20;1.00
780;DHT22;373;49.342;8.146;2023-02-28T08:24:48;1.20;1.00
780;DHT22;373;49.342;8.146;2023-02-28T08:27:15;1.20;1.00
780;DHT22;373;49.342;8.146;2023-02-28T08:29:43;1.20;1.00
780;DHT22;373;49.342;8.146;2023-02-28T08:32:11;1.30;1.00
780;DHT22;373;49.342;8.146;2023-02-28T08:34:39;1.50;1.00
780;DHT22;373;49.342;8.146;2023-02-28T08:37:06;1.60;99.90
780;DHT22;373;49.342;8.146;2023-02-28T08:39:34;1.70;99.90
780;DHT22;373;49.342;8.146;2023-02-28T08:42:01;1.70;99.90
780;DHT22;373;49.342;8.146;2023-02-28T08:44:29;1.90;99.90
780;DHT22;373;49.342;8.146;2023-02-28T08:46:56;2.10;99.90
780;DHT22;373;49.342;8.146;2023-02-28T08:49:24;2.20;99.90
780;DHT22;373;49.342;8.146;2023-02-28T08:51:51;2.50;99.90
780;DHT22;373;49.342;8.146;2023-02-28T08:54:19;2.50;99.90
780;DHT22;373;49.342;8.146;2023-02-28T08:56:46;2.50;99.90
780;DHT22;373;49.342;8.146;2023-02-28T08:59:13;2.40;99.90
780;DHT22;373;49.342;8.146;2023-02-28T09:01:41;2.70;99.90
780;DHT22;373;49.342;8.146;2023-02-28T09:04:09;2.80;99.90
780;DHT22;373;49.342;8.146;2023-02-28T09:06:38;2.90;99.90
780;DHT22;373;49.342;8.146;2023-02-28T09:09:06;3.20;99.90
780;DHT22;373;49.342;8.146;2023-02-28T09:11:33;3.70;99.90
780;DHT22;373;49.342;8.146;2023-02-28T09:14:01;3.90;99.90
780;DHT22;373;49.342;8.146;2023-02-28T09:16:30;3.70;99.90
780;DHT22;373;49.342;8.146;2023-02-28T09:18:57;3.80;99.90
780;DHT22;373;49.342;8.146;2023-02-28T09:21:25;3.60;99.90
780;DHT22;373;49.342;8.146;2023-02-28T09:23:54;3.70;99.90
780;DHT22;373;49.342;8.146;2023-02-28T09:26:23;3.70;99.90
780;DHT22;373;49.342;8.146;2023-02-28T09:28:51;3.80;99.90
780;DHT22;373;49.342;8.146;2023-02-28T09:31:20;3.80;99.90
780;DHT22;373;49.342;8.146;2023-02-28T09:33:48;3.60;99.90
780;DHT22;373;49.342;8.146;2023-02-28T09:36:15;4.00;99.90
780;DHT22;373;49.342;8.146;2023-02-28T09:38:42;5.00;99.90
780;DHT22;373;49.342;8.146;2023-02-28T09:41:15;5.40;99.90
780;DHT22;373;49.342;8.146;2023-02-28T09:43:45;6.30;99.90
780;DHT22;373;49.342;8.146;2023-02-28T09:46:27;6.10;99.50
780;DHT22;373;49.342;8.146;2023-02-28T09:48:56;6.30;95.50
780;DHT22;373;49.342;8.146;2023-02-28T09:51:40;6.50;91.10
780;DHT22;373;49.342;8.146;2023-02-28T09:54:14;7.40;83.30
780;DHT22;373;49.342;8.146;2023-02-28T09:56:49;7.20;76.10
780;DHT22;373;49.342;8.146;2023-02-28T09:59:35;7.10;68.50
780;DHT22;373;49.342;8.146;2023-02-28T10:02:21;7.20;77.40
780;DHT22;373;49.342;8.146;2023-02-28T10:04:54;7.30;58.80
780;DHT22;373;49.342;8.146;2023-02-28T10:07:40;7.40;53.10
780;DHT22;373;49.342;8.146;2023-02-28T10:10:20;7.50;48.10
780;DHT22;373;49.342;8.146;2023-02-28T10:12:53;7.10;45.10
780;DHT22;373;49.342;8.146;2023-02-28T10:15:23;6.80;41.90
780;DHT22;373;49.342;8.146;2023-02-28T10:17:54;6.60;40.50
780;DHT22;373;49.342;8.146;2023-02-28T10:20:24;7.10;41.50
780;DHT22;373;49.342;8.146;2023-02-28T10:23:08;7.80;40.90
780;DHT22;373;49.342;8.146;2023-02-28T10:25:38;7.80;36.50
780;DHT22;373;49.342;8.146;2023-02-28T10:28:10;7.80;33.90
780;DHT22;373;49.342;8.146;2023-02-28T10:30:40;6.30;29.40
780;DHT22;373;49.342;8.146;2023-02-28T10:33:17;5.80;31.80
780;DHT22;373;49.342;8.146;2023-02-28T10:35:46;5.80;33.00
780;DHT22;373;49.342;8.146;2023-02-28T10:38:18;6.40;34.30
780;DHT22;373;49.342;8.146;2023-02-28T10:40:45;7.10;35.30
780;DHT22;373;49.342;8.146;2023-02-28T10:43:21;7.90;33.30
780;DHT22;373;49.342;8.146;2023-02-28T10:46:00;8.00;28.90
780;DHT22;373;49.342;8.146;2023-02-28T10:48:34;7.50;28.40
780;DHT22;373;49.342;8.146;2023-02-28T10:51:04;8.20;29.70
780;DHT22;373;49.342;8.146;2023-02-28T10:53:44;8.70;27.50
780;DHT22;373;49.342;8.146;2023-02-28T10:56:17;8.10;23.60
780;DHT22;373;49.342;8.146;2023-02-28T10:58:51;8.20;24.60
780;DHT22;373;49.342;8.146;2023-02-28T11:01:20;8.40;23.90
780;DHT22;373;49.342;8.146;2023-02-28T11:03:48;8.50;21.10
780;DHT22;373;49.342;8.146;2023-02-28T11:06:19;7.20;16.90
780;DHT22;373;49.342;8.146;2023-02-28T11:08:50;7.20;18.30
780;DHT22;373;49.342;8.146;2023-02-28T11:11:20;7.30;18.40
780;DHT22;373;49.342;8.146;2023-02-28T11:13:51;6.90;16.50
780;DHT22;373;49.342;8.146;2023-02-28T11:16:19;6.40;15.70
780;DHT22;373;49.342;8.146;2023-02-28T11:18:49;6.20;15.30
780;DHT22;373;49.342;8.146;2023-02-28T11:21:20;5.90;15.50
780;DHT22;373;49.342;8.146;2023-02-28T11:23:50;6.70;18.20
780;DHT22;373;49.342;8.146;2023-02-28T11:26:37;6.90;17.30
780;DHT22;373;49.342;8.146;2023-02-28T11:29:11;6.10;15.10
780;DHT22;373;49.342;8.146;2023-02-28T11:31:39;6.40;17.50
780;DHT22;373;49.342;8.146;2023-02-28T11:34:22;7.60;19.40
780;DHT22;373;49.342;8.146;2023-02-28T11:36:51;7.80;16.50
780;DHT22;373;49.342;8.146;2023-02-28T11:39:20;7.30;14.40
780;DHT22;373;49.342;8.146;2023-02-28T11:44:47;5.90;10.40
780;DHT22;373;49.342;8.146;2023-02-28T11:47:28;6.10;12.40
780;DHT22;373;49.342;8.146;2023-02-28T11:50:10;6.00;12.50
780;DHT22;373;49.342;8.146;2023-02-28T11:52:44;6.20;13.20
780;DHT22;373;49.342;8.146;2023-02-28T11:55:18;6.40;13.00
780;DHT22;373;49.342;8.146;2023-02-28T11:57:56;7.00;14.40
780;DHT22;373;49.342;8.146;2023-02-28T12:00:40;6.60;12.10
780;DHT22;373;49.342;8.146;2023-02-28T12:03:17;6.20;11.80
780;DHT22;373;49.342;8.146;2023-02-28T12:05:57;5.90;11.30
780;DHT22;373;49.342;8.146;2023-02-28T12:08:42;5.70;11.00
780;DHT22;373;49.342;8.146;2023-02-28T12:11:17;5.90;12.50
780;DHT22;373;49.342;8.146;2023-02-28T12:13:51;5.80;12.40
780;DHT22;373;49.342;8.146;2023-02-28T12:16:41;5.70;13.50
780;DHT22;373;49.342;8.146;2023-02-28T12:19:17;6.10;13.70
780;DHT22;373;49.342;8.146;2023-02-28T12:22:12;6.40;14.00
780;DHT22;373;49.342;8.146;2023-02-28T12:27:38;6.30;13.20
780;DHT22;373;49.342;8.146;2023-02-28T12:30:14;6.40;12.80
780;DHT22;373;49.342;8.146;2023-02-28T12:32:46;6.70;13.20
780;DHT22;373;49.342;8.146;2023-02-28T12:35:17;6.60;12.40
780;DHT22;373;49.342;8.146;2023-02-28T12:37:51;6.70;12.50
780;DHT22;373;49.342;8.146;2023-02-28T12:40:22;6.80;13.30
780;DHT22;373;49.342;8.146;2023-02-28T12:42:52;6.60;11.80
780;DHT22;373;49.342;8.146;2023-02-28T12:45:23;6.30;10.20
780;DHT22;373;49.342;8.146;2023-02-28T12:47:55;6.20;10.80
780;DHT22;373;49.342;8.146;2023-02-28T12:50:24;6.10;11.00
780;DHT22;373;49.342;8.146;2023-02-28T12:52:55;6.00;10.90
780;DHT22;373;49.342;8.146;2023-02-28T12:55:31;6.00;10.60
780;DHT22;373;49.342;8.146;2023-02-28T12:58:10;5.90;10.00
780;DHT22;373;49.342;8.146;2023-02-28T13:00:56;6.10;10.50
780;DHT22;373;49.342;8.146;2023-02-28T13:04:04;6.10;10.50
780;DHT22;373;49.342;8.146;2023-02-28T13:06:45;6.00;9.80
780;DHT22;373;49.342;8.146;2023-02-28T13:09:19;5.90;10.50
780;DHT22;373;49.342;8.146;2023-02-28T13:11:48;5.70;10.00
780;DHT22;373;49.342;8.146;2023-02-28T13:14:23;6.00;10.90
780;DHT22;373;49.342;8.146;2023-02-28T13:17:01;6.00;10.90
780;DHT22;373;49.342;8.146;2023-02-28T13:19:31;6.50;12.60
780;DHT22;373;49.342;8.146;2023-02-28T13:21:59;6.20;10.50
780;DHT22;373;49.342;8.146;2023-02-28T13:24:51;6.10;10.10
780;DHT22;373;49.342;8.146;2023-02-28T13:27:37;6.10;9.80
780;DHT22;373;49.342;8.146;2023-02-28T13:33:25;6.00;10.60
780;DHT22;373;49.342;8.146;2023-02-28T13:36:23;5.90;9.90
780;DHT22;373;49.342;8.146;2023-02-28T13:38:52;6.40;11.00
780;DHT22;373;49.342;8.146;2023-02-28T13:41:45;6.50;10.60
780;DHT22;373;49.342;8.146;2023-02-28T13:44:14;6.50;9.20
780;DHT22;373;49.342;8.146;2023-02-28T13:47:20;6.60;9.50
780;DHT22;373;49.342;8.146;2023-02-28T13:49:51;6.60;9.10
780;DHT22;373;49.342;8.146;2023-02-28T13:52:21;6.40;7.60
780;DHT22;373;49.342;8.146;2023-02-28T13:57:48;6.20;7.70
780;DHT22;373;49.342;8.146;2023-02-28T14:00:30;6.20;8.10
780;DHT22;373;49.342;8.146;2023-02-28T14:03:11;6.50;8.30
780;DHT22;373;49.342;8.146;2023-02-28T14:05:41;6.40;7.90
780;DHT22;373;49.342;8.146;2023-02-28T14:08:15;6.30;7.80
780;DHT22;373;49.342;8.146;2023-02-28T14:10:45;6.20;7.10
780;DHT22;373;49.342;8.146;2023-02-28T14:13:38;6.00;6.70
780;DHT22;373;49.342;8.146;2023-02-28T14:16:10;6.10;7.60
780;DHT22;373;49.342;8.146;2023-02-28T14:18:39;6.10;7.40
780;DHT22;373;49.342;8.146;2023-02-28T14:21:16;6.00;7.40
780;DHT22;373;49.342;8.146;2023-02-28T14:24:31;6.20;8.60
780;DHT22;373;49.342;8.146;2023-02-28T14:27:09;6.30;9.10
780;DHT22;373;49.342;8.146;2023-02-28T14:32:40;6.20;7.50
780;DHT22;373;49.342;8.146;2023-02-28T14:35:20;6.30;8.10
780;DHT22;373;49.342;8.146;2023-02-28T14:37:50;6.20;8.20
780;DHT22;373;49.342;8.146;2023-02-28T14:40:22;6.40;8.80
780;DHT22;373;49.342;8.146;2023-02-28T14:42:56;6.60;7.90
780;DHT22;373;49.342;8.146;2023-02-28T14:45:23;6.30;7.60
780;DHT22;373;49.342;8.146;2023-02-28T14:47:51;6.30;7.80
780;DHT22;373;49.342;8.146;2023-02-28T14:50:21;6.10;15.20
780;DHT22;373;49.342;8.146;2023-02-28T14:52:52;6.10;7.80
780;DHT22;373;49.342;8.146;2023-02-28T14:55:24;6.00;7.20
780;DHT22;373;49.342;8.146;2023-02-28T14:57:54;6.00;7.70
780;DHT22;373;49.342;8.146;2023-02-28T15:00:24;6.10;8.10
780;DHT22;373;49.342;8.146;2023-02-28T15:02:53;6.40;9.70
780;DHT22;373;49.342;8.146;2023-02-28T15:05:26;6.30;8.60
780;DHT22;373;49.342;8.146;2023-02-28T15:08:05;6.20;7.50
780;DHT22;373;49.342;8.146;2023-02-28T15:10:33;6.40;8.80
780;DHT22;373;49.342;8.146;2023-02-28T15:13:01;6.30;7.90
780;DHT22;373;49.342;8.146;2023-02-28T15:15:44;6.00;14.70
780;DHT22;373;49.342;8.146;2023-02-28T15:18:17;6.00;7.50
780;DHT22;373;49.342;8.146;2023-02-28T15:20:48;5.80;7.60
780;DHT22;373;49.342;8.146;2023-02-28T15:23:18;5.60;7.50
780;DHT22;373;49.342;8.146;2023-02-28T15:25:46;5.60;8.50
780;DHT22;373;49.342;8.146;2023-02-28T15:28:15;5.90;8.80
780;DHT22;373;49.342;8.146;2023-02-28T15:30:56;5.90;8.70
780;DHT22;373;49.342;8.146;2023-02-28T15:33:26;5.90;9.20
780;DHT22;373;49.342;8.146;2023-02-28T15:36:10;5.90;8.50
780;DHT22;373;49.342;8.146;2023-02-28T15:38:43;5.70;7.90
780;DHT22;373;49.342;8.146;2023-02-28T15:41:24;5.60;7.80
780;DHT22;373;49.342;8.146;2023-02-28T15:47:02;5.80;9.70
780;DHT22;373;49.342;8.146;2023-02-28T15:49:36;5.70;9.00
780;DHT22;373;49.342;8.146;2023-02-28T15:52:05;5.60;9.40
780;DHT22;373;49.342;8.146;2023-02-28T15:54:35;5.60;9.20
780;DHT22;373;49.342;8.146;2023-02-28T15:57:05;5.50;9.30
780;DHT22;373;49.342;8.146;2023-02-28T15:59:36;5.50;9.60
780;DHT22;373;49.342;8.146;2023-02-28T16:02:14;5.40;9.30
780;DHT22;373;49.342;8.146;2023-02-28T16:04:57;5.50;9.90
780;DHT22;373;49.342;8.146;2023-02-28T16:07:25;5.40;10.10
780;DHT22;373;49.342;8.146;2023-02-28T16:09:54;5.40;11.10
780;DHT22;373;49.342;8.146;2023-02-28T16:12:25;5.40;11.60
780;DHT22;373;49.342;8.146;2023-02-28T16:14:54;5.30;10.90
780;DHT22;373;49.342;8.146;2023-02-28T16:17:25;5.30;11.60
780;DHT22;373;49.342;8.146;2023-02-28T16:19:52;5.20;12.10
780;DHT22;373;49.342;8.146;2023-02-28T16:22:20;5.20;11.80
780;DHT22;373;49.342;8.146;2023-02-28T16:24:47;5.30;12.80
780;DHT22;373;49.342;8.146;2023-02-28T16:27:18;5.20;13.20
780;DHT22;373;49.342;8.146;2023-02-28T16:29:47;5.40;13.40
780;DHT22;373;49.342;8.146;2023-02-28T16:32:15;5.20;14.00
780;DHT22;373;49.342;8.146;2023-02-28T16:34:43;5.10;13.40
780;DHT22;373;49.342;8.146;2023-02-28T16:37:13;4.90;13.80
780;DHT22;373;49.342;8.146;2023-02-28T16:39:41;4.80;14.20
780;DHT22;373;49.342;8.146;2023-02-28T16:42:14;4.70;14.80
780;DHT22;373;49.342;8.146;2023-02-28T16:44:43;4.70;15.50
780;DHT22;373;49.342;8.146;2023-02-28T16:47:11;4.70;15.70
780;DHT22;373;49.342;8.146;2023-02-28T16:49:38;4.80;16.60
780;DHT22;373;49.342;8.146;2023-02-28T16:52:07;4.60;17.70
780;DHT22;373;49.342;8.146;2023-02-28T16:54:35;4.60;17.70
780;DHT22;373;49.342;8.146;2023-02-28T16:57:02;4.70;19.00
780;DHT22;373;49.342;8.146;2023-02-28T16:59:29;4.60;19.30
780;DHT22;373;49.342;8.146;2023-02-28T17:01:59;4.50;27.40
780;DHT22;373;49.342;8.146;2023-02-28T17:04:26;4.40;20.90
780;DHT22;373;49.342;8.146;2023-02-28T17:06:53;4.40;21.30
780;DHT22;373;49.342;8.146;2023-02-28T17:09:22;4.40;22.10
780;DHT22;373;49.342;8.146;2023-02-28T17:11:50;4.50;22.80
780;DHT22;373;49.342;8.146;2023-02-28T17:14:18;4.40;23.70
780;DHT22;373;49.342;8.146;2023-02-28T17:16:46;4.50;24.10
780;DHT22;373;49.342;8.146;2023-02-28T17:19:15;4.50;23.80
780;DHT22;373;49.342;8.146;2023-02-28T17:21:44;4.40;24.10
780;DHT22;373;49.342;8.146;2023-02-28T17:24:11;4.40;33.20
780;DHT22;373;49.342;8.146;2023-02-28T17:26:39;4.30;25.40
780;DHT22;373;49.342;8.146;2023-02-28T17:29:13;4.40;26.80
780;DHT22;373;49.342;8.146;2023-02-28T17:31:40;4.40;26.90
780;DHT22;373;49.342;8.146;2023-02-28T17:34:07;4.30;27.40
780;DHT22;373;49.342;8.146;2023-02-28T17:36:36;4.30;27.70
780;DHT22;373;49.342;8.146;2023-02-28T17:39:05;4.30;37.60
780;DHT22;373;49.342;8.146;2023-02-28T17:41:35;4.60;28.70
780;DHT22;373;49.342;8.146;2023-02-28T17:44:02;4.70;27.20
780;DHT22;373;49.342;8.146;2023-02-28T17:46:30;4.90;28.10
780;DHT22;373;49.342;8.146;2023-02-28T17:48:57;4.80;27.40
780;DHT22;373;49.342;8.146;2023-02-28T17:51:25;4.80;27.20
780;DHT22;373;49.342;8.146;2023-02-28T17:53:54;4.60;28.90
780;DHT22;373;49.342;8.146;2023-02-28T17:56:22;4.50;28.10
780;DHT22;373;49.342;8.146;2023-02-28T17:58:51;4.40;28.40
780;DHT22;373;49.342;8.146;2023-02-28T18:01:19;4.60;29.10
780;DHT22;373;49.342;8.146;2023-02-28T18:03:46;4.70;29.70
780;DHT22;373;49.342;8.146;2023-02-28T18:06:16;4.70;28.10
780;DHT22;373;49.342;8.146;2023-02-28T18:08:45;4.40;28.40